createdAt,value
2017-01-20T00:01:03.799Z,0
2017-01-20T00:02:14.529Z,0
2017-01-20T00:03:25.288Z,0
2017-01-20T00:04:36.019Z,0
2017-01-20T00:05:46.747Z,0
2017-01-20T00:06:57.487Z,0
2017-01-20T00:08:08.225Z,0
2017-01-20T00:09:18.954Z,0
2017-01-20T00:10:29.671Z,0
2017-01-20T00:11:40.396Z,0
2017-01-20T00:12:51.143Z,0
2017-01-20T00:14:01.913Z,0
2017-01-20T00:15:12.635Z,0
2017-01-20T00:16:23.351Z,0
2017-01-20T00:17:34.073Z,0
2017-01-20T00:18:44.793Z,0
2017-01-20T00:19:55.515Z,0
2017-01-20T00:21:06.239Z,0
2017-01-20T00:22:16.961Z,0
2017-01-20T00:23:27.679Z,0
2017-01-20T00:24:38.378Z,0
2017-01-20T00:25:49.124Z,0
2017-01-20T00:26:59.840Z,0
2017-01-20T00:28:10.564Z,0
2017-01-20T00:29:21.286Z,0
2017-01-20T00:30:31.979Z,0
2017-01-20T00:31:42.700Z,0
2017-01-20T00:32:53.425Z,0
2017-01-20T00:34:04.170Z,0
2017-01-20T00:35:14.889Z,0
2017-01-20T00:36:25.612Z,0
2017-01-20T00:37:36.330Z,0
2017-01-20T00:38:47.026Z,0
2017-01-20T00:39:57.726Z,0
2017-01-20T00:41:08.471Z,0
2017-01-20T00:42:19.192Z,0
2017-01-20T00:43:29.914Z,0
2017-01-20T00:44:40.652Z,0
2017-01-20T00:45:51.369Z,0
2017-01-20T00:47:02.106Z,0
2017-01-20T00:48:12.861Z,0
2017-01-20T00:49:23.590Z,0
2017-01-20T00:50:34.289Z,0
2017-01-20T00:51:45.011Z,0
2017-01-20T00:52:56.159Z,0
2017-01-20T00:54:06.874Z,0
2017-01-20T00:55:17.600Z,0
2017-01-20T00:56:28.341Z,0
2017-01-20T00:57:39.037Z,0
2017-01-20T00:58:49.762Z,0
2017-01-20T01:00:00.497Z,0
2017-01-20T01:01:11.205Z,0
2017-01-20T01:02:21.950Z,0
2017-01-20T01:03:32.671Z,0
2017-01-20T01:04:43.388Z,0
2017-01-20T01:05:54.130Z,0
2017-01-20T01:07:04.838Z,0
2017-01-20T01:08:15.556Z,0
2017-01-20T01:09:26.301Z,0
2017-01-20T01:10:37.022Z,0
2017-01-20T01:11:47.760Z,0
2017-01-20T01:12:58.484Z,0
2017-01-20T01:14:09.209Z,0
2017-01-20T01:15:19.947Z,0
2017-01-20T01:16:30.671Z,0
2017-01-20T01:17:41.396Z,0
2017-01-20T01:18:52.141Z,0
2017-01-20T01:20:03.260Z,0
2017-01-20T01:21:13.984Z,0
2017-01-20T01:22:24.703Z,0
2017-01-20T01:23:35.425Z,0
2017-01-20T01:24:46.146Z,0
2017-01-20T01:25:56.866Z,0
2017-01-20T01:27:07.576Z,0
2017-01-20T01:28:18.301Z,0
2017-01-20T01:29:29.029Z,0
2017-01-20T01:30:39.752Z,0
2017-01-20T01:31:50.495Z,0
2017-01-20T01:33:01.198Z,0
2017-01-20T01:34:11.939Z,0
2017-01-20T01:35:22.678Z,0
2017-01-20T01:36:33.805Z,0
2017-01-20T01:37:44.527Z,0
2017-01-20T01:38:55.244Z,0
2017-01-20T01:40:06.343Z,0
2017-01-20T01:41:17.069Z,0
2017-01-20T01:42:27.799Z,0
2017-01-20T01:43:38.532Z,0
2017-01-20T01:44:49.277Z,0
2017-01-20T01:46:00.025Z,0
2017-01-20T01:47:10.765Z,0
2017-01-20T01:48:21.483Z,0
2017-01-20T01:49:32.212Z,0
2017-01-20T01:50:42.958Z,0
2017-01-20T01:51:53.700Z,0
2017-01-20T01:53:04.423Z,0
2017-01-20T01:54:15.163Z,0
2017-01-20T01:55:25.867Z,0
2017-01-20T01:56:36.559Z,0
2017-01-20T01:57:47.257Z,0
2017-01-20T01:58:58.382Z,0
2017-01-20T02:00:09.131Z,0
2017-01-20T02:01:19.845Z,0
2017-01-20T02:02:30.556Z,0
2017-01-20T02:03:41.263Z,0
2017-01-20T02:04:52.002Z,0
2017-01-20T02:06:02.730Z,0
2017-01-20T02:07:13.450Z,0
2017-01-20T02:08:24.198Z,0
2017-01-20T02:09:34.924Z,0
2017-01-20T02:10:45.682Z,0
2017-01-20T02:11:56.410Z,0
2017-01-20T02:13:07.158Z,0
2017-01-20T02:14:17.894Z,0
2017-01-20T02:15:28.620Z,0
2017-01-20T02:16:39.337Z,0
2017-01-20T02:17:50.062Z,0
2017-01-20T02:19:00.762Z,0
2017-01-20T02:20:11.504Z,0
2017-01-20T02:21:22.202Z,0
2017-01-20T02:22:32.903Z,0
2017-01-20T02:23:43.649Z,0
2017-01-20T02:24:54.367Z,0
2017-01-20T02:26:05.089Z,0
2017-01-20T02:27:15.830Z,0
2017-01-20T02:28:26.551Z,0
2017-01-20T02:29:37.264Z,0
2017-01-20T02:30:47.968Z,0
2017-01-20T02:31:58.666Z,0
2017-01-20T02:33:09.815Z,0
2017-01-20T02:34:20.584Z,0
2017-01-20T02:35:31.679Z,0
2017-01-20T02:36:42.376Z,0
2017-01-20T02:37:53.098Z,0
2017-01-20T02:39:03.819Z,0
2017-01-20T02:40:14.589Z,0
2017-01-20T02:41:25.337Z,0
2017-01-20T02:42:36.057Z,0
2017-01-20T02:43:46.781Z,0
2017-01-20T02:44:57.523Z,0
2017-01-20T02:46:08.268Z,0
2017-01-20T02:47:18.986Z,0
2017-01-20T02:48:29.710Z,0
2017-01-20T02:49:40.458Z,0
2017-01-20T02:50:51.199Z,0
2017-01-20T02:52:01.922Z,0
2017-01-20T02:53:12.642Z,0
2017-01-20T02:54:23.390Z,0
2017-01-20T02:55:34.113Z,0
2017-01-20T02:56:44.832Z,0
2017-01-20T02:57:55.575Z,0
2017-01-20T02:59:06.287Z,0
2017-01-20T03:00:17.092Z,0
2017-01-20T03:01:27.817Z,0
2017-01-20T03:02:38.560Z,0
2017-01-20T03:03:49.332Z,0
2017-01-20T03:05:00.054Z,0
2017-01-20T03:06:10.777Z,0
2017-01-20T03:07:21.542Z,0
2017-01-20T03:08:32.267Z,0
2017-01-20T03:09:42.984Z,0
2017-01-20T03:10:53.706Z,0
2017-01-20T03:12:04.427Z,0
2017-01-20T03:13:15.130Z,0
2017-01-20T03:14:25.872Z,0
2017-01-20T03:15:36.615Z,0
2017-01-20T03:16:47.340Z,0
2017-01-20T03:17:58.062Z,0
2017-01-20T03:19:08.810Z,0
2017-01-20T03:20:19.523Z,0
2017-01-20T03:21:30.248Z,0
2017-01-20T03:22:41.365Z,0
2017-01-20T03:23:52.090Z,0
2017-01-20T03:25:02.836Z,0
2017-01-20T03:26:13.583Z,0
2017-01-20T03:27:24.303Z,0
2017-01-20T03:28:35.026Z,0
2017-01-20T03:29:45.770Z,0
2017-01-20T03:30:56.491Z,0
2017-01-20T03:32:07.217Z,0
2017-01-20T03:33:17.959Z,0
2017-01-20T03:34:28.701Z,0
2017-01-20T03:35:39.413Z,0
2017-01-20T03:36:50.121Z,0
2017-01-20T03:38:00.843Z,0
2017-01-20T03:39:11.552Z,0
2017-01-20T03:40:22.263Z,0
2017-01-20T03:41:33.002Z,0
2017-01-20T03:42:43.726Z,0
2017-01-20T03:43:54.445Z,0
2017-01-20T03:45:05.169Z,0
2017-01-20T03:46:15.907Z,0
2017-01-20T03:47:26.632Z,0
2017-01-20T03:48:37.335Z,0
2017-01-20T03:49:48.052Z,0
2017-01-20T03:50:58.776Z,0
2017-01-20T03:52:09.496Z,0
2017-01-20T03:53:20.241Z,0
2017-01-20T03:54:30.983Z,0
2017-01-20T03:55:41.683Z,0
2017-01-20T03:56:52.403Z,0
2017-01-20T03:58:03.124Z,0
2017-01-20T03:59:13.869Z,0
2017-01-20T04:00:24.964Z,0
2017-01-20T04:01:35.663Z,0
2017-01-20T04:02:46.407Z,0
2017-01-20T04:03:57.156Z,0
2017-01-20T04:05:07.881Z,0
2017-01-20T04:06:18.597Z,0
2017-01-20T04:07:29.336Z,0
2017-01-20T04:08:40.044Z,0
2017-01-20T04:09:50.784Z,0
2017-01-20T04:11:01.486Z,0
2017-01-20T04:12:12.206Z,0
2017-01-20T04:13:22.922Z,0
2017-01-20T04:14:33.639Z,0
2017-01-20T04:15:44.364Z,0
2017-01-20T04:16:55.111Z,0
2017-01-20T04:18:05.827Z,0
2017-01-20T04:19:16.548Z,0
2017-01-20T04:20:27.273Z,0
2017-01-20T04:21:38.007Z,0
2017-01-20T04:22:48.736Z,0
2017-01-20T04:23:59.463Z,0
2017-01-20T04:25:10.170Z,0
2017-01-20T04:26:20.903Z,0
2017-01-20T04:27:31.619Z,0
2017-01-20T04:28:42.347Z,0
2017-01-20T04:29:53.087Z,0
2017-01-20T04:31:03.803Z,0
2017-01-20T04:32:14.527Z,0
2017-01-20T04:33:25.230Z,0
2017-01-20T04:34:35.987Z,0
2017-01-20T04:35:46.690Z,0
2017-01-20T04:36:57.411Z,0
2017-01-20T04:38:08.157Z,0
2017-01-20T04:39:18.878Z,0
2017-01-20T04:40:29.624Z,0
2017-01-20T04:41:40.320Z,0
2017-01-20T04:42:51.045Z,0
2017-01-20T04:44:01.765Z,0
2017-01-20T04:45:12.488Z,0
2017-01-20T04:46:23.229Z,0
2017-01-20T04:47:33.933Z,0
2017-01-20T04:48:44.675Z,0
2017-01-20T04:49:55.413Z,0
2017-01-20T04:51:06.142Z,0
2017-01-20T04:52:16.888Z,0
2017-01-20T04:53:27.627Z,0
2017-01-20T04:54:38.331Z,0
2017-01-20T04:55:49.055Z,0
2017-01-20T04:56:59.793Z,0
2017-01-20T04:58:10.492Z,0
2017-01-20T04:59:21.188Z,0
2017-01-20T05:00:31.913Z,0
2017-01-20T05:01:42.657Z,0
2017-01-20T05:02:53.424Z,0
2017-01-20T05:04:04.152Z,0
2017-01-20T05:05:14.899Z,0
2017-01-20T05:06:25.637Z,0
2017-01-20T05:07:36.363Z,0
2017-01-20T05:08:47.079Z,0
2017-01-20T05:09:57.783Z,0
2017-01-20T05:11:08.513Z,0
2017-01-20T05:12:19.217Z,0
2017-01-20T05:13:29.967Z,0
2017-01-20T05:14:40.710Z,0
2017-01-20T05:15:51.434Z,0
2017-01-20T05:17:02.155Z,0
2017-01-20T05:18:13.274Z,0
2017-01-20T05:19:23.997Z,0
2017-01-20T05:20:34.722Z,0
2017-01-20T05:21:45.467Z,0
2017-01-20T05:22:56.582Z,0
2017-01-20T05:24:07.308Z,0
2017-01-20T05:25:18.053Z,0
2017-01-20T05:26:28.797Z,0
2017-01-20T05:27:39.516Z,0
2017-01-20T05:28:50.215Z,0
2017-01-20T05:30:00.959Z,0
2017-01-20T05:31:11.683Z,0
2017-01-20T05:32:22.425Z,0
2017-01-20T05:33:33.174Z,0
2017-01-20T05:34:43.893Z,0
2017-01-20T05:35:54.593Z,0
2017-01-20T05:37:05.319Z,0
2017-01-20T05:38:16.060Z,0
2017-01-20T05:39:26.784Z,0
2017-01-20T05:40:37.502Z,0
2017-01-20T05:41:48.247Z,0
2017-01-20T05:42:58.966Z,0
2017-01-20T05:44:09.693Z,0
2017-01-20T05:45:20.433Z,0
2017-01-20T05:46:31.159Z,0
2017-01-20T05:47:41.879Z,0
2017-01-20T05:48:52.627Z,0
2017-01-20T05:50:03.388Z,0
2017-01-20T05:51:14.489Z,0
2017-01-20T05:52:25.205Z,0
2017-01-20T05:53:35.930Z,0
2017-01-20T05:54:46.646Z,0
2017-01-20T05:55:57.377Z,0
2017-01-20T05:57:08.118Z,0
2017-01-20T05:58:18.844Z,0
2017-01-20T05:59:29.578Z,0
2017-01-20T06:00:40.309Z,0
2017-01-20T06:01:51.032Z,0
2017-01-20T06:03:01.748Z,0
2017-01-20T06:04:12.452Z,0
2017-01-20T06:05:23.193Z,0
2017-01-20T06:06:33.914Z,0
2017-01-20T06:07:44.633Z,0
2017-01-20T06:08:55.354Z,0
2017-01-20T06:10:06.499Z,0
2017-01-20T06:11:17.266Z,0
2017-01-20T06:12:27.996Z,0
2017-01-20T06:13:38.733Z,0
2017-01-20T06:14:49.441Z,0
2017-01-20T06:16:00.158Z,0
2017-01-20T06:17:10.904Z,0
2017-01-20T06:18:21.625Z,0
2017-01-20T06:19:32.350Z,0
2017-01-20T06:20:43.088Z,0
2017-01-20T06:21:53.785Z,0
2017-01-20T06:23:04.484Z,0
2017-01-20T06:24:15.176Z,0
2017-01-20T06:25:25.900Z,0
2017-01-20T06:26:36.612Z,4
2017-01-20T06:27:47.343Z,4
2017-01-20T06:28:58.088Z,0
2017-01-20T06:30:08.810Z,4
2017-01-20T06:31:19.531Z,4
2017-01-20T06:32:30.270Z,0
2017-01-20T06:33:40.990Z,4
2017-01-20T06:34:51.715Z,4
2017-01-20T06:36:02.414Z,8
2017-01-20T06:37:13.161Z,8
2017-01-20T06:38:23.906Z,8
2017-01-20T06:39:34.624Z,16
2017-01-20T06:40:45.341Z,16
2017-01-20T06:41:56.067Z,20
2017-01-20T06:43:06.766Z,24
2017-01-20T06:44:17.476Z,28
2017-01-20T06:45:28.204Z,36
2017-01-20T06:46:38.900Z,36
2017-01-20T06:47:49.649Z,40
2017-01-20T06:49:00.346Z,44
2017-01-20T06:50:11.112Z,52
2017-01-20T06:51:21.859Z,60
2017-01-20T06:52:32.585Z,68
2017-01-20T06:53:43.332Z,80
2017-01-20T06:54:54.093Z,92
2017-01-20T06:56:04.798Z,108
2017-01-20T06:57:15.914Z,128
2017-01-20T06:58:26.628Z,148
2017-01-20T06:59:37.356Z,160
2017-01-20T07:00:48.094Z,176
2017-01-20T07:01:58.827Z,200
2017-01-20T07:03:09.523Z,216
2017-01-20T07:04:20.283Z,236
2017-01-20T07:05:31.011Z,260
2017-01-20T07:06:41.738Z,276
2017-01-20T07:07:52.481Z,300
2017-01-20T07:09:03.202Z,320
2017-01-20T07:10:13.945Z,328
2017-01-20T07:11:24.666Z,356
2017-01-20T07:12:35.383Z,376
2017-01-20T07:13:46.110Z,420
2017-01-20T07:14:56.829Z,440
2017-01-20T07:16:07.551Z,464
2017-01-20T07:17:18.271Z,484
2017-01-20T07:18:28.985Z,492
2017-01-20T07:19:39.691Z,500
2017-01-20T07:20:50.411Z,524
2017-01-20T07:22:01.111Z,544
2017-01-20T07:23:11.851Z,548
2017-01-20T07:24:22.572Z,552
2017-01-20T07:25:33.293Z,584
2017-01-20T07:26:44.015Z,668
2017-01-20T07:27:54.711Z,744
2017-01-20T07:29:05.434Z,764
2017-01-20T07:30:16.183Z,792
2017-01-20T07:31:26.923Z,788
2017-01-20T07:32:37.622Z,832
2017-01-20T07:33:48.341Z,912
2017-01-20T07:34:59.086Z,980
2017-01-20T07:36:09.804Z,1044
2017-01-20T07:37:20.513Z,1112
2017-01-20T07:38:31.225Z,1088
2017-01-20T07:39:41.937Z,1148
2017-01-20T07:40:52.642Z,1204
2017-01-20T07:42:03.365Z,1256
2017-01-20T07:43:14.063Z,1336
2017-01-20T07:44:24.812Z,1400
2017-01-20T07:45:35.535Z,1456
2017-01-20T07:46:46.672Z,1424
2017-01-20T07:47:57.418Z,1392
2017-01-20T07:49:08.143Z,1416
2017-01-20T07:50:18.860Z,1488
2017-01-20T07:51:29.632Z,1528
2017-01-20T07:52:40.354Z,1620
2017-01-20T07:53:51.049Z,1576
2017-01-20T07:55:01.744Z,1596
2017-01-20T07:56:12.440Z,1728
2017-01-20T07:57:23.136Z,1688
2017-01-20T07:58:33.881Z,1768
2017-01-20T07:59:44.602Z,1808
2017-01-20T08:00:55.323Z,1868
2017-01-20T08:02:06.044Z,2008
2017-01-20T08:03:16.790Z,2220
2017-01-20T08:04:27.891Z,2572
2017-01-20T08:05:38.609Z,2856
2017-01-20T08:06:49.331Z,2936
2017-01-20T08:08:00.052Z,2788
2017-01-20T08:09:10.761Z,2512
2017-01-20T08:10:21.486Z,2492
2017-01-20T08:11:32.211Z,3100
2017-01-20T08:12:42.963Z,3848
2017-01-20T08:13:53.705Z,4244
2017-01-20T08:15:04.448Z,4064
2017-01-20T08:16:15.196Z,3740
2017-01-20T08:17:26.294Z,3332
2017-01-20T08:18:37.027Z,2892
2017-01-20T08:19:47.756Z,3004
2017-01-20T08:20:58.479Z,3436
2017-01-20T08:22:09.223Z,3904
2017-01-20T08:23:19.921Z,4516
2017-01-20T08:24:30.668Z,4584
2017-01-20T08:25:41.413Z,4176
2017-01-20T08:26:52.139Z,3992
2017-01-20T08:28:02.859Z,3916
2017-01-20T08:29:13.602Z,3620
2017-01-20T08:30:24.389Z,3712
2017-01-20T08:31:35.144Z,4252
2017-01-20T08:32:45.909Z,4316
2017-01-20T08:33:56.614Z,4256
2017-01-20T08:35:07.354Z,4216
2017-01-20T08:36:18.077Z,4248
2017-01-20T08:37:28.817Z,4420
2017-01-20T08:38:39.535Z,4568
2017-01-20T08:39:50.276Z,4652
2017-01-20T08:41:01.005Z,4652
2017-01-20T08:42:11.755Z,4624
2017-01-20T08:43:22.475Z,4540
2017-01-20T08:44:33.221Z,4460
2017-01-20T08:45:43.963Z,4572
2017-01-20T08:46:54.684Z,4764
2017-01-20T08:48:05.404Z,4868
2017-01-20T08:49:16.134Z,4744
2017-01-20T08:50:26.852Z,4736
2017-01-20T08:51:37.614Z,4728
2017-01-20T08:52:48.342Z,4464
2017-01-20T08:53:59.064Z,4220
2017-01-20T08:55:09.806Z,4156
2017-01-20T08:56:20.527Z,4124
2017-01-20T08:57:31.277Z,3988
2017-01-20T08:58:42.019Z,4024
2017-01-20T08:59:52.750Z,4316
2017-01-20T09:01:03.479Z,4536
2017-01-20T09:02:14.212Z,4524
2017-01-20T09:03:25.303Z,4456
2017-01-20T09:04:36.000Z,4424
2017-01-20T09:05:46.721Z,4468
2017-01-20T09:06:57.444Z,4624
2017-01-20T09:08:08.193Z,4852
2017-01-20T09:09:18.936Z,5004
2017-01-20T09:10:29.657Z,5248
2017-01-20T09:11:40.375Z,5372
2017-01-20T09:12:51.123Z,5520
2017-01-20T09:14:01.871Z,5812
2017-01-20T09:15:12.594Z,5712
2017-01-20T09:16:23.308Z,5456
2017-01-20T09:17:34.026Z,5708
2017-01-20T09:18:44.730Z,6168
2017-01-20T09:19:55.472Z,6460
2017-01-20T09:21:06.196Z,6724
2017-01-20T09:22:16.943Z,7136
2017-01-20T09:23:27.688Z,6920
2017-01-20T09:24:38.439Z,6780
2017-01-20T09:25:49.177Z,7020
2017-01-20T09:26:59.894Z,6924
2017-01-20T09:28:10.623Z,6460
2017-01-20T09:29:21.345Z,6380
2017-01-20T09:30:32.066Z,6464
2017-01-20T09:31:42.785Z,6184
2017-01-20T09:32:53.532Z,6580
2017-01-20T09:34:04.269Z,7728
2017-01-20T09:35:14.999Z,8196
2017-01-20T09:36:25.732Z,7844
2017-01-20T09:37:36.468Z,8764
2017-01-20T09:38:47.212Z,10984
2017-01-20T09:39:57.954Z,11168
2017-01-20T09:41:08.675Z,9188
2017-01-20T09:42:19.424Z,7660
2017-01-20T09:43:30.175Z,7260
2017-01-20T09:44:40.892Z,8876
2017-01-20T09:45:51.630Z,11448
2017-01-20T09:47:02.359Z,11408
2017-01-20T09:48:13.104Z,10028
2017-01-20T09:49:23.825Z,8500
2017-01-20T09:50:34.575Z,7388
2017-01-20T09:51:45.289Z,7540
2017-01-20T09:52:55.990Z,8496
2017-01-20T09:54:06.732Z,9032
2017-01-20T09:55:17.458Z,8684
2017-01-20T09:56:28.154Z,8348
2017-01-20T09:57:38.895Z,9080
2017-01-20T09:58:49.598Z,9168
2017-01-20T10:00:00.337Z,9124
2017-01-20T10:01:11.059Z,9444
2017-01-20T10:02:21.786Z,8648
2017-01-20T10:03:32.508Z,7100
2017-01-20T10:04:43.239Z,7276
2017-01-20T10:05:53.994Z,9056
2017-01-20T10:07:04.694Z,10700
2017-01-20T10:08:15.430Z,10264
2017-01-20T10:09:26.162Z,9384
2017-01-20T10:10:36.878Z,8060
2017-01-20T10:11:47.602Z,7092
2017-01-20T10:12:58.345Z,6856
2017-01-20T10:14:09.069Z,7252
2017-01-20T10:15:19.812Z,7492
2017-01-20T10:16:30.557Z,7048
2017-01-20T10:17:41.277Z,6596
2017-01-20T10:18:52.000Z,6336
2017-01-20T10:20:03.125Z,6352
2017-01-20T10:21:13.870Z,6556
2017-01-20T10:22:24.612Z,6600
2017-01-20T10:23:35.337Z,6520
2017-01-20T10:24:46.078Z,6904
2017-01-20T10:25:56.804Z,7500
2017-01-20T10:27:07.554Z,7260
2017-01-20T10:28:18.308Z,6908
2017-01-20T10:29:29.041Z,6788
2017-01-20T10:30:39.758Z,6820
2017-01-20T10:31:50.454Z,7364
2017-01-20T10:33:01.184Z,7944
2017-01-20T10:34:11.925Z,8116
2017-01-20T10:35:22.667Z,8328
2017-01-20T10:36:33.364Z,8612
2017-01-20T10:37:44.101Z,9112
2017-01-20T10:38:54.834Z,9932
2017-01-20T10:40:05.555Z,10244
2017-01-20T10:41:16.294Z,10420
2017-01-20T10:42:27.023Z,10920
2017-01-20T10:43:37.785Z,10836
2017-01-20T10:44:48.532Z,10932
2017-01-20T10:45:59.635Z,11204
2017-01-20T10:47:10.382Z,11788
2017-01-20T10:48:21.130Z,13124
2017-01-20T10:49:31.875Z,13124
2017-01-20T10:50:42.620Z,11932
2017-01-20T10:51:53.366Z,10960
2017-01-20T10:53:04.133Z,10256
2017-01-20T10:54:14.883Z,10052
2017-01-20T10:55:25.602Z,9748
2017-01-20T10:56:36.313Z,9804
2017-01-20T10:57:47.020Z,10112
2017-01-20T10:58:57.734Z,11328
2017-01-20T11:00:08.463Z,13044
2017-01-20T11:01:19.210Z,13968
2017-01-20T11:02:29.955Z,13284
2017-01-20T11:03:40.725Z,10824
2017-01-20T11:04:51.472Z,9272
2017-01-20T11:06:02.214Z,8852
2017-01-20T11:07:12.935Z,9080
2017-01-20T11:08:23.657Z,9472
2017-01-20T11:09:34.405Z,10268
2017-01-20T11:10:45.133Z,9828
2017-01-20T11:11:55.869Z,8632
2017-01-20T11:13:06.583Z,8036
2017-01-20T11:14:17.311Z,8728
2017-01-20T11:15:28.017Z,9340
2017-01-20T11:16:38.736Z,9480
2017-01-20T11:17:49.478Z,9680
2017-01-20T11:19:00.225Z,9576
2017-01-20T11:20:10.967Z,9360
2017-01-20T11:21:21.691Z,10872
2017-01-20T11:22:32.450Z,12496
2017-01-20T11:23:43.159Z,12420
2017-01-20T11:24:53.925Z,12500
2017-01-20T11:26:05.027Z,11776
2017-01-20T11:27:15.719Z,11196
2017-01-20T11:28:26.439Z,10240
2017-01-20T11:29:37.185Z,8520
2017-01-20T11:30:47.938Z,7816
2017-01-20T11:31:58.677Z,7760
2017-01-20T11:33:09.402Z,8620
2017-01-20T11:34:20.144Z,9100
2017-01-20T11:35:30.870Z,8752
2017-01-20T11:36:41.591Z,8464
2017-01-20T11:37:52.337Z,8080
2017-01-20T11:39:03.082Z,7880
2017-01-20T11:40:13.799Z,7832
2017-01-20T11:41:24.538Z,8376
2017-01-20T11:42:35.295Z,9908
2017-01-20T11:43:46.042Z,11684
2017-01-20T11:44:56.784Z,12300
2017-01-20T11:46:07.530Z,11004
2017-01-20T11:47:18.282Z,9500
2017-01-20T11:48:29.001Z,8124
2017-01-20T11:49:39.696Z,7472
2017-01-20T11:50:50.438Z,7732
2017-01-20T11:52:01.160Z,8392
2017-01-20T11:53:11.930Z,8304
2017-01-20T11:54:22.648Z,8320
2017-01-20T11:55:33.366Z,8504
2017-01-20T11:56:44.119Z,9052
2017-01-20T11:57:55.244Z,9988
2017-01-20T11:59:05.953Z,11048
2017-01-20T12:00:16.727Z,10912
2017-01-20T12:01:27.456Z,9744
2017-01-20T12:02:38.199Z,9016
2017-01-20T12:03:48.920Z,9736
2017-01-20T12:04:59.646Z,10952
2017-01-20T12:06:10.736Z,11080
2017-01-20T12:07:21.454Z,9612
2017-01-20T12:08:32.181Z,8416
2017-01-20T12:09:42.952Z,8260
2017-01-20T12:10:53.696Z,8884
2017-01-20T12:12:04.407Z,10504
2017-01-20T12:13:15.137Z,11440
2017-01-20T12:14:25.862Z,10116
2017-01-20T12:15:36.585Z,9212
2017-01-20T12:16:47.328Z,8092
2017-01-20T12:17:58.046Z,7644
2017-01-20T12:19:08.772Z,7760
2017-01-20T12:20:19.522Z,9320
2017-01-20T12:21:30.259Z,10036
2017-01-20T12:22:40.980Z,9500
2017-01-20T12:23:51.697Z,8700
2017-01-20T12:25:02.425Z,8536
2017-01-20T12:26:13.167Z,8372
2017-01-20T12:27:23.893Z,8072
2017-01-20T12:28:34.634Z,8208
2017-01-20T12:29:45.362Z,8100
2017-01-20T12:30:56.105Z,8552
2017-01-20T12:32:06.827Z,8932
2017-01-20T12:33:17.539Z,9864
2017-01-20T12:34:28.264Z,9960
2017-01-20T12:35:38.988Z,8912
2017-01-20T12:36:49.740Z,7244
2017-01-20T12:38:00.480Z,7188
2017-01-20T12:39:11.223Z,7496
2017-01-20T12:40:21.972Z,7560
2017-01-20T12:41:32.694Z,7800
2017-01-20T12:42:43.411Z,8220
2017-01-20T12:43:54.137Z,8140
2017-01-20T12:45:04.853Z,7988
2017-01-20T12:46:15.576Z,8564
2017-01-20T12:47:26.291Z,8024
2017-01-20T12:48:37.040Z,7608
2017-01-20T12:49:47.769Z,7592
2017-01-20T12:50:58.494Z,7444
2017-01-20T12:52:09.230Z,7876
2017-01-20T12:53:19.951Z,7960
2017-01-20T12:54:30.677Z,7344
2017-01-20T12:55:41.427Z,7292
2017-01-20T12:56:52.165Z,7608
2017-01-20T12:58:02.913Z,8088
2017-01-20T12:59:13.637Z,8032
2017-01-20T13:00:24.360Z,7748
2017-01-20T13:01:35.098Z,7116
2017-01-20T13:02:45.820Z,7064
2017-01-20T13:03:56.519Z,7112
2017-01-20T13:05:07.213Z,7332
2017-01-20T13:06:17.936Z,6780
2017-01-20T13:07:28.654Z,6832
2017-01-20T13:08:39.371Z,7708
2017-01-20T13:09:50.100Z,7132
2017-01-20T13:11:00.844Z,6312
2017-01-20T13:12:11.555Z,6088
2017-01-20T13:13:22.287Z,6100
2017-01-20T13:14:33.034Z,5732
2017-01-20T13:15:43.751Z,5924
2017-01-20T13:16:54.475Z,5532
2017-01-20T13:18:05.195Z,5132
2017-01-20T13:19:15.917Z,5280
2017-01-20T13:20:26.689Z,5444
2017-01-20T13:21:37.427Z,5540
2017-01-20T13:22:48.153Z,4956
2017-01-20T13:23:58.877Z,5196
2017-01-20T13:25:09.645Z,4776
2017-01-20T13:26:20.368Z,4872
2017-01-20T13:27:31.067Z,4720
2017-01-20T13:28:41.807Z,4916
2017-01-20T13:29:52.503Z,4600
2017-01-20T13:31:03.229Z,4408
2017-01-20T13:32:13.951Z,4860
2017-01-20T13:33:24.671Z,5068
2017-01-20T13:34:35.391Z,4580
2017-01-20T13:35:46.114Z,4280
2017-01-20T13:36:56.830Z,4292
2017-01-20T13:38:07.555Z,4196
2017-01-20T13:39:18.271Z,4228
2017-01-20T13:40:29.000Z,4172
2017-01-20T13:41:39.743Z,4076
2017-01-20T13:42:50.456Z,4192
2017-01-20T13:44:01.160Z,4096
2017-01-20T13:45:11.931Z,4120
2017-01-20T13:46:22.651Z,4012
2017-01-20T13:47:33.373Z,3828
2017-01-20T13:48:44.544Z,3784
2017-01-20T13:49:55.260Z,3808
2017-01-20T13:51:05.977Z,3640
2017-01-20T13:52:16.698Z,3564
2017-01-20T13:53:27.432Z,3868
2017-01-20T13:54:38.165Z,4004
2017-01-20T13:55:48.891Z,3676
2017-01-20T13:56:59.608Z,3868
2017-01-20T13:58:10.312Z,3720
2017-01-20T13:59:21.049Z,3396
2017-01-20T14:00:31.754Z,3776
2017-01-20T14:01:42.495Z,3852
2017-01-20T14:02:53.191Z,3680
2017-01-20T14:04:03.920Z,3828
2017-01-20T14:05:14.636Z,3704
2017-01-20T14:06:25.356Z,3800
2017-01-20T14:07:36.055Z,4188
2017-01-20T14:08:46.797Z,3848
2017-01-20T14:09:57.521Z,3624
2017-01-20T14:11:08.643Z,3592
2017-01-20T14:12:19.390Z,3520
2017-01-20T14:13:30.109Z,3760
2017-01-20T14:14:40.844Z,4164
2017-01-20T14:15:51.558Z,3984
2017-01-20T14:17:02.272Z,3400
2017-01-20T14:18:12.995Z,3180
2017-01-20T14:19:23.742Z,3536
2017-01-20T14:20:34.503Z,3824
2017-01-20T14:21:45.249Z,3576
2017-01-20T14:22:55.955Z,3284
2017-01-20T14:24:06.695Z,3264
2017-01-20T14:25:17.416Z,3524
2017-01-20T14:26:28.289Z,3336
2017-01-20T14:27:39.015Z,3084
2017-01-20T14:28:49.754Z,3096
2017-01-20T14:30:00.480Z,3004
2017-01-20T14:31:11.196Z,2936
2017-01-20T14:32:21.895Z,3028
2017-01-20T14:33:32.614Z,3236
2017-01-20T14:34:43.701Z,3168
2017-01-20T14:35:54.409Z,3000
2017-01-20T14:37:05.102Z,2760
2017-01-20T14:38:15.827Z,2644
2017-01-20T14:39:26.561Z,2592
2017-01-20T14:40:37.294Z,2672
2017-01-20T14:41:48.011Z,2828
2017-01-20T14:42:58.725Z,2748
2017-01-20T14:44:09.880Z,2516
2017-01-20T14:45:20.599Z,2040
2017-01-20T14:46:31.299Z,1976
2017-01-20T14:47:42.045Z,1880
2017-01-20T14:48:53.155Z,1780
2017-01-20T14:50:03.883Z,1688
2017-01-20T14:51:14.605Z,1592
2017-01-20T14:52:25.310Z,1456
2017-01-20T14:53:36.055Z,1376
2017-01-20T14:54:46.796Z,1344
2017-01-20T14:55:57.515Z,1340
2017-01-20T14:57:08.238Z,1252
2017-01-20T14:58:18.955Z,1140
2017-01-20T14:59:29.678Z,1044
2017-01-20T15:00:40.379Z,1008
2017-01-20T15:01:51.097Z,988
2017-01-20T15:03:01.843Z,936
2017-01-20T15:04:12.603Z,912
2017-01-20T15:05:23.331Z,936
2017-01-20T15:06:34.073Z,908
2017-01-20T15:07:44.803Z,904
2017-01-20T15:08:55.524Z,868
2017-01-20T15:10:06.259Z,852
2017-01-20T15:11:16.996Z,824
2017-01-20T15:12:27.762Z,784
2017-01-20T15:13:38.483Z,740
2017-01-20T15:14:49.225Z,688
2017-01-20T15:15:59.930Z,640
2017-01-20T15:17:10.668Z,596
2017-01-20T15:18:21.371Z,572
2017-01-20T15:19:32.138Z,532
2017-01-20T15:20:42.880Z,476
2017-01-20T15:21:53.580Z,440
2017-01-20T15:23:04.297Z,412
2017-01-20T15:24:15.025Z,384
2017-01-20T15:25:25.767Z,360
2017-01-20T15:26:36.488Z,328
2017-01-20T15:27:47.198Z,304
2017-01-20T15:28:57.952Z,280
2017-01-20T15:30:08.651Z,256
2017-01-20T15:31:19.773Z,228
2017-01-20T15:32:30.490Z,220
2017-01-20T15:33:41.214Z,200
2017-01-20T15:34:51.936Z,180
2017-01-20T15:36:02.677Z,172
2017-01-20T15:37:13.393Z,156
2017-01-20T15:38:24.143Z,136
2017-01-20T15:39:34.868Z,116
2017-01-20T15:40:45.631Z,108
2017-01-20T15:41:56.361Z,92
2017-01-20T15:43:07.097Z,80
2017-01-20T15:44:17.822Z,72
2017-01-20T15:45:28.523Z,64
2017-01-20T15:46:39.257Z,48
2017-01-20T15:47:49.977Z,44
2017-01-20T15:49:00.697Z,36
2017-01-20T15:50:11.431Z,28
2017-01-20T15:51:22.148Z,24
2017-01-20T15:52:32.868Z,20
2017-01-20T15:53:43.620Z,16
2017-01-20T15:54:54.360Z,16
2017-01-20T15:56:05.098Z,12
2017-01-20T15:57:15.827Z,12
2017-01-20T15:58:26.552Z,8
2017-01-20T15:59:37.294Z,8
2017-01-20T16:00:48.007Z,8
2017-01-20T16:01:58.753Z,4
2017-01-20T16:03:09.474Z,4
2017-01-20T16:04:20.210Z,0
2017-01-20T16:05:30.930Z,4
2017-01-20T16:06:41.661Z,4
2017-01-20T16:07:52.368Z,0
2017-01-20T16:09:03.140Z,4
2017-01-20T16:10:13.857Z,4
2017-01-20T16:11:24.553Z,4
2017-01-20T16:12:35.275Z,0
2017-01-20T16:13:46.023Z,0
2017-01-20T16:14:56.787Z,0
2017-01-20T16:16:07.497Z,0
2017-01-20T16:17:18.229Z,0
2017-01-20T16:18:28.960Z,0
2017-01-20T16:19:39.704Z,0
2017-01-20T16:20:50.439Z,0
2017-01-20T16:22:01.197Z,0
2017-01-20T16:23:12.291Z,0
2017-01-20T16:24:23.033Z,0
2017-01-20T16:25:33.732Z,0
2017-01-20T16:26:44.431Z,0
2017-01-20T16:27:55.177Z,0